sensor_id;sensor_type;location;lat;lon;timestamp;pressure;altitude;pressure_sealevel;temperature;humidity
71857;BME280;63344;46.980;28.882;2023-04-29T00:00:57;100837.28;;;6.15;56.71
71857;BME280;63344;46.980;28.882;2023-04-29T00:03:24;100851.31;;;6.16;56.72
71857;BME280;63344;46.980;28.882;2023-04-29T00:06:01;100838.16;;;6.14;56.52
71857;BME280;63344;46.980;28.882;2023-04-29T00:08:28;100845.13;;;6.17;56.65
71857;BME280;63344;46.980;28.882;2023-04-29T00:10:56;100843.41;;;6.16;56.83
71857;BME280;63344;46.980;28.882;2023-04-29T00:13:25;100835.53;;;6.13;56.81
71857;BME280;63344;46.980;28.882;2023-04-29T00:15:53;100841.72;;;6.12;56.41
71857;BME280;63344;46.980;28.882;2023-04-29T00:18:20;100832.03;;;6.12;56.88
71857;BME280;63344;46.980;28.882;2023-04-29T00:20:48;100825.91;;;6.12;56.88
71857;BME280;63344;46.980;28.882;2023-04-29T00:23:15;100826.84;;;6.09;56.89
71857;BME280;63344;46.980;28.882;2023-04-29T00:25:42;100835.63;;;6.10;57.19
71857;BME280;63344;46.980;28.882;2023-04-29T00:28:09;100826.88;;;6.06;57.06
71857;BME280;63344;46.980;28.882;2023-04-29T00:30:37;100839.19;;;6.07;57.25
71857;BME280;63344;46.980;28.882;2023-04-29T00:33:04;100838.34;;;6.05;57.11
71857;BME280;63344;46.980;28.882;2023-04-29T00:35:31;100837.50;;;6.02;57.14
71857;BME280;63344;46.980;28.882;2023-04-29T00:37:58;100832.25;;;6.00;57.19
71857;BME280;63344;46.980;28.882;2023-04-29T00:40:27;100833.19;;;5.97;57.27
71857;BME280;63344;46.980;28.882;2023-04-29T00:42:54;100839.31;;;6.00;56.92
71857;BME280;63344;46.980;28.882;2023-04-29T00:45:23;100845.47;;;5.97;57.00
71857;BME280;63344;46.980;28.882;2023-04-29T00:47:50;100840.25;;;5.95;57.30
71857;BME280;63344;46.980;28.882;2023-04-29T00:50:18;100840.25;;;5.95;56.83
71857;BME280;63344;46.980;28.882;2023-04-29T00:52:46;100844.63;;;5.95;57.01
71857;BME280;63344;46.980;28.882;2023-04-29T00:55:15;100842.03;;;5.90;56.81
71857;BME280;63344;46.980;28.882;2023-04-29T00:57:44;100849.06;;;5.91;57.38
71857;BME280;63344;46.980;28.882;2023-04-29T01:00:14;100837.69;;;5.89;57.09
71857;BME280;63344;46.980;28.882;2023-04-29T01:02:42;100846.47;;;5.88;57.16
71857;BME280;63344;46.980;28.882;2023-04-29T01:05:10;100845.59;;;5.88;57.60
71857;BME280;63344;46.980;28.882;2023-04-29T01:08:09;100842.13;;;5.87;57.28
71857;BME280;63344;46.980;28.882;2023-04-29T01:10:55;100847.41;;;5.84;57.07
71857;BME280;63344;46.980;28.882;2023-04-29T01:13:42;100845.69;;;5.83;57.10
71857;BME280;63344;46.980;28.882;2023-04-29T01:16:20;100846.59;;;5.81;57.14
71857;BME280;63344;46.980;28.882;2023-04-29T01:18:53;100848.38;;;5.77;57.16
71857;BME280;63344;46.980;28.882;2023-04-29T01:21:23;100853.72;;;5.75;57.62
71857;BME280;63344;46.980;28.882;2023-04-29T01:23:51;100851.09;;;5.74;57.25
71857;BME280;63344;46.980;28.882;2023-04-29T01:26:23;100849.34;;;5.73;57.47
71857;BME280;63344;46.980;28.882;2023-04-29T01:29:05;100844.13;;;5.70;57.45
71857;BME280;63344;46.980;28.882;2023-04-29T01:34:18;100840.66;;;5.66;57.93
71857;BME280;63344;46.980;28.882;2023-04-29T01:42:33;100838.97;;;5.61;58.18
71857;BME280;63344;46.980;28.882;2023-04-29T01:45:06;100841.63;;;5.59;58.25
71857;BME280;63344;46.980;28.882;2023-04-29T01:47:35;100839.06;;;5.54;58.46
71857;BME280;63344;46.980;28.882;2023-04-29T01:50:03;100847.91;;;5.52;58.84
71857;BME280;63344;46.980;28.882;2023-04-29T01:52:31;100847.06;;;5.48;59.09
71857;BME280;63344;46.980;28.882;2023-04-29T01:54:58;100849.75;;;5.45;59.08
71857;BME280;63344;46.980;28.882;2023-04-29T01:57:27;100848.94;;;5.40;59.01
71857;BME280;63344;46.980;28.882;2023-04-29T01:59:54;100845.44;;;5.39;59.45
71857;BME280;63344;46.980;28.882;2023-04-29T02:02:23;100854.22;;;5.40;59.38
71857;BME280;63344;46.980;28.882;2023-04-29T02:04:51;100849.81;;;5.39;59.75
71857;BME280;63344;46.980;28.882;2023-04-29T02:07:19;100847.25;;;5.36;59.73
71857;BME280;63344;46.980;28.882;2023-04-29T02:09:47;100854.28;;;5.34;59.90
71857;BME280;63344;46.980;28.882;2023-04-29T02:12:15;100852.59;;;5.31;59.75
71857;BME280;63344;46.980;28.882;2023-04-29T02:14:42;100854.38;;;5.29;60.04
71857;BME280;63344;46.980;28.882;2023-04-29T02:17:11;100860.53;;;5.27;60.19
71857;BME280;63344;46.980;28.882;2023-04-29T02:19:38;100859.69;;;5.25;60.21
71857;BME280;63344;46.980;28.882;2023-04-29T02:22:06;100863.19;;;5.25;60.43
71857;BME280;63344;46.980;28.882;2023-04-29T02:24:33;100864.94;;;5.23;60.49
71857;BME280;63344;46.980;28.882;2023-04-29T02:27:01;100861.50;;;5.19;60.65
71857;BME280;63344;46.980;28.882;2023-04-29T02:29:32;100868.50;;;5.21;60.71
71857;BME280;63344;46.980;28.882;2023-04-29T02:32:00;100868.53;;;5.19;60.84
71857;BME280;63344;46.980;28.882;2023-04-29T02:34:27;100868.56;;;5.17;60.99
71857;BME280;63344;46.980;28.882;2023-04-29T02:36:55;100865.94;;;5.16;60.92
71857;BME280;63344;46.980;28.882;2023-04-29T02:39:22;100872.13;;;5.13;60.67
71857;BME280;63344;46.980;28.882;2023-04-29T02:41:53;100874.78;;;5.12;60.72
71857;BME280;63344;46.980;28.882;2023-04-29T02:44:20;100883.53;;;5.12;61.13
71857;BME280;63344;46.980;28.882;2023-04-29T02:46:49;100882.66;;;5.13;61.27
71857;BME280;63344;46.980;28.882;2023-04-29T02:49:16;100880.91;;;5.12;61.39
71857;BME280;63344;46.980;28.882;2023-04-29T02:51:43;100889.72;;;5.08;61.34
71857;BME280;63344;46.980;28.882;2023-04-29T02:54:10;100885.31;;;5.09;61.37
71857;BME280;63344;46.980;28.882;2023-04-29T02:56:37;100887.09;;;5.07;61.23
71857;BME280;63344;46.980;28.882;2023-04-29T02:59:04;100889.75;;;5.05;61.29
71857;BME280;63344;46.980;28.882;2023-04-29T03:01:32;100879.25;;;5.04;61.32
71857;BME280;63344;46.980;28.882;2023-04-29T03:03:59;100882.75;;;5.03;61.66
71857;BME280;63344;46.980;28.882;2023-04-29T03:06:27;100878.38;;;5.03;61.64
71857;BME280;63344;46.980;28.882;2023-04-29T03:08:54;100881.91;;;5.04;61.65
71857;BME280;63344;46.980;28.882;2023-04-29T03:11:21;100888.03;;;5.04;61.67
71857;BME280;63344;46.980;28.882;2023-04-29T03:13:50;100895.00;;;5.07;61.83
71857;BME280;63344;46.980;28.882;2023-04-29T03:16:17;100901.16;;;5.07;61.88
71857;BME280;63344;46.980;28.882;2023-04-29T03:18:45;100900.25;;;5.10;61.55
71857;BME280;63344;46.980;28.882;2023-04-29T03:21:12;100895.81;;;5.13;61.75
71857;BME280;63344;46.980;28.882;2023-04-29T03:23:39;100885.22;;;5.18;61.58
71857;BME280;63344;46.980;28.882;2023-04-29T03:26:06;100893.97;;;5.22;61.74
71857;BME280;63344;46.980;28.882;2023-04-29T03:28:33;100905.25;;;5.31;61.48
71857;BME280;63344;46.980;28.882;2023-04-29T03:31:02;100902.44;;;5.45;61.45
71857;BME280;63344;46.980;28.882;2023-04-29T03:33:29;100905.78;;;5.58;61.04
71857;BME280;63344;46.980;28.882;2023-04-29T03:35:56;100915.28;;;5.68;60.26
71857;BME280;63344;46.980;28.882;2023-04-29T03:38:23;100918.69;;;5.76;60.08
71857;BME280;63344;46.980;28.882;2023-04-29T03:40:52;100908.00;;;5.87;59.91
71857;BME280;63344;46.980;28.882;2023-04-29T03:43:19;100913.13;;;6.00;59.32
71857;BME280;63344;46.980;28.882;2023-04-29T03:45:46;100912.78;;;6.21;59.40
71857;BME280;63344;46.980;28.882;2023-04-29T03:48:14;100907.94;;;6.48;58.82
71857;BME280;63344;46.980;28.882;2023-04-29T03:50:41;100906.53;;;6.76;58.84
71857;BME280;63344;46.980;28.882;2023-04-29T03:53:08;100906.94;;;7.03;58.00
71857;BME280;63344;46.980;28.882;2023-04-29T03:55:36;100913.53;;;7.24;57.58
71857;BME280;63344;46.980;28.882;2023-04-29T03:58:03;100915.00;;;7.39;56.14
71857;BME280;63344;46.980;28.882;2023-04-29T04:00:33;100912.06;;;7.53;54.95
71857;BME280;63344;46.980;28.882;2023-04-29T04:03:00;100909.19;;;7.64;55.13
71857;BME280;63344;46.980;28.882;2023-04-29T04:05:34;100916.59;;;7.87;55.25
71857;BME280;63344;46.980;28.882;2023-04-29T04:08:01;100910.75;;;8.11;54.01
71857;BME280;63344;46.980;28.882;2023-04-29T04:10:28;100913.50;;;8.43;53.85
71857;BME280;63344;46.980;28.882;2023-04-29T04:12:55;100905.66;;;8.74;52.75
71857;BME280;63344;46.980;28.882;2023-04-29T04:15:23;100905.72;;;9.04;51.80
71857;BME280;63344;46.980;28.882;2023-04-29T04:17:53;100911.91;;;9.35;51.46
71857;BME280;63344;46.980;28.882;2023-04-29T04:20:40;100908.13;;;9.72;50.34
71857;BME280;63344;46.980;28.882;2023-04-29T04:23:08;100893.94;;;10.03;49.61
71857;BME280;63344;46.980;28.882;2023-04-29T04:25:36;100897.59;;;10.26;48.03
71857;BME280;63344;46.980;28.882;2023-04-29T04:28:10;100902.78;;;10.57;48.44
71857;BME280;63344;46.980;28.882;2023-04-29T04:30:39;100904.91;;;10.98;47.95
71857;BME280;63344;46.980;28.882;2023-04-29T04:33:09;100901.00;;;11.08;46.30
71857;BME280;63344;46.980;28.882;2023-04-29T04:35:37;100897.16;;;11.16;45.23
71857;BME280;63344;46.980;28.882;2023-04-29T04:38:19;100909.56;;;11.16;44.40
71857;BME280;63344;46.980;28.882;2023-04-29T04:40:47;100903.00;;;11.26;43.56
71857;BME280;63344;46.980;28.882;2023-04-29T04:43:17;100901.34;;;11.46;43.87
71857;BME280;63344;46.980;28.882;2023-04-29T04:45:44;100900.16;;;11.54;43.06
71857;BME280;63344;46.980;28.882;2023-04-29T04:48:12;100894.06;;;11.74;43.11
71857;BME280;63344;46.980;28.882;2023-04-29T04:50:39;100895.41;;;12.08;42.81
71857;BME280;63344;46.980;28.882;2023-04-29T04:53:06;100906.59;;;12.39;41.51
71857;BME280;63344;46.980;28.882;2023-04-29T04:55:33;100897.00;;;12.55;41.12
71857;BME280;63344;46.980;28.882;2023-04-29T04:58:01;100897.53;;;12.43;39.88
71857;BME280;63344;46.980;28.882;2023-04-29T05:00:28;100906.97;;;12.29;40.02
71857;BME280;63344;46.980;28.882;2023-04-29T05:02:56;100900.59;;;12.11;39.93
71857;BME280;63344;46.980;28.882;2023-04-29T05:05:28;100897.88;;;11.91;41.35
71857;BME280;63344;46.980;28.882;2023-04-29T05:07:56;100910.44;;;12.31;40.96
71857;BME280;63344;46.980;28.882;2023-04-29T05:10:23;100905.75;;;12.59;40.16
71857;BME280;63344;46.980;28.882;2023-04-29T05:12:53;100908.63;;;12.74;40.40
71857;BME280;63344;46.980;28.882;2023-04-29T05:15:20;100896.47;;;13.08;39.02
71857;BME280;63344;46.980;28.882;2023-04-29T05:17:48;100895.34;;;13.14;39.61
71857;BME280;63344;46.980;28.882;2023-04-29T05:20:15;100885.66;;;13.32;38.84
71857;BME280;63344;46.980;28.882;2023-04-29T05:22:42;100895.41;;;13.12;38.20
71857;BME280;63344;46.980;28.882;2023-04-29T05:25:12;100910.34;;;12.75;38.70
71857;BME280;63344;46.980;28.882;2023-04-29T05:27:40;100906.44;;;12.42;39.71
71857;BME280;63344;46.980;28.882;2023-04-29T05:30:07;100913.97;;;12.10;39.29
71857;BME280;63344;46.980;28.882;2023-04-29T05:32:38;100906.03;;;11.86;39.96
71857;BME280;63344;46.980;28.882;2023-04-29T05:35:06;100912.31;;;11.60;40.43
71857;BME280;63344;46.980;28.882;2023-04-29T05:37:34;100907.59;;;11.21;41.05
71857;BME280;63344;46.980;28.882;2023-04-29T05:40:01;100908.19;;;11.04;41.68
71857;BME280;63344;46.980;28.882;2023-04-29T05:42:29;100906.16;;;10.87;42.14
71857;BME280;63344;46.980;28.882;2023-04-29T05:44:56;100900.53;;;10.71;42.35
71857;BME280;63344;46.980;28.882;2023-04-29T05:47:23;100905.53;;;10.54;42.68
71857;BME280;63344;46.980;28.882;2023-04-29T05:49:51;100898.25;;;10.34;43.01
71857;BME280;63344;46.980;28.882;2023-04-29T05:52:19;100913.53;;;10.26;43.54
71857;BME280;63344;46.980;28.882;2023-04-29T05:54:46;100911.06;;;10.20;44.19
71857;BME280;63344;46.980;28.882;2023-04-29T05:57:28;100901.69;;;10.09;43.69
71857;BME280;63344;46.980;28.882;2023-04-29T05:59:55;100893.94;;;10.03;43.30
71857;BME280;63344;46.980;28.882;2023-04-29T06:02:51;100894.78;;;10.04;43.89
71857;BME280;63344;46.980;28.882;2023-04-29T06:05:27;100899.19;;;10.05;44.14
71857;BME280;63344;46.980;28.882;2023-04-29T06:07:56;100896.38;;;10.09;44.27
71857;BME280;63344;46.980;28.882;2023-04-29T06:10:23;100904.19;;;10.14;44.53
71857;BME280;63344;46.980;28.882;2023-04-29T06:13:05;100896.00;;;10.20;43.91
71857;BME280;63344;46.980;28.882;2023-04-29T06:15:33;100894.91;;;10.27;44.51
71857;BME280;63344;46.980;28.882;2023-04-29T06:18:01;100893.72;;;10.38;44.26
71857;BME280;63344;46.980;28.882;2023-04-29T06:20:28;100895.69;;;10.57;43.65
71857;BME280;63344;46.980;28.882;2023-04-29T06:22:56;100893.75;;;10.63;43.11
71857;BME280;63344;46.980;28.882;2023-04-29T06:25:24;100883.78;;;10.69;43.65
71857;BME280;63344;46.980;28.882;2023-04-29T06:27:51;100885.13;;;10.81;41.77
71857;BME280;63344;46.980;28.882;2023-04-29T06:30:34;100887.38;;;10.92;41.28
71857;BME280;63344;46.980;28.882;2023-04-29T06:33:01;100878.81;;;11.09;40.42
71857;BME280;63344;46.980;28.882;2023-04-29T06:35:28;100883.84;;;11.16;39.84
71857;BME280;63344;46.980;28.882;2023-04-29T06:37:55;100882.69;;;11.24;39.48
71857;BME280;63344;46.980;28.882;2023-04-29T06:40:23;100865.00;;;11.23;39.36
71857;BME280;63344;46.980;28.882;2023-04-29T06:42:51;100872.28;;;11.18;39.56
71857;BME280;63344;46.980;28.882;2023-04-29T06:45:18;100871.44;;;11.17;40.02
71857;BME280;63344;46.980;28.882;2023-04-29T06:47:45;100857.72;;;11.28;37.90
71857;BME280;63344;46.980;28.882;2023-04-29T06:50:13;100868.81;;;11.15;38.89
71857;BME280;63344;46.980;28.882;2023-04-29T06:52:40;100864.34;;;11.16;39.66
71857;BME280;63344;46.980;28.882;2023-04-29T06:55:08;100868.72;;;11.19;38.74
71857;BME280;63344;46.980;28.882;2023-04-29T06:57:36;100874.84;;;11.21;39.93
71857;BME280;63344;46.980;28.882;2023-04-29T07:00:04;100860.94;;;11.36;38.28
71857;BME280;63344;46.980;28.882;2023-04-29T07:02:31;100855.63;;;11.36;36.72
71857;BME280;63344;46.980;28.882;2023-04-29T07:04:59;100865.59;;;11.31;37.46
71857;BME280;63344;46.980;28.882;2023-04-29T07:07:26;100845.75;;;11.40;36.46
71857;BME280;63344;46.980;28.882;2023-04-29T07:09:54;100859.75;;;11.45;35.78
71857;BME280;63344;46.980;28.882;2023-04-29T07:12:22;100857.09;;;11.45;36.20
71857;BME280;63344;46.980;28.882;2023-04-29T07:15:11;100855.19;;;11.48;36.67
71857;BME280;63344;46.980;28.882;2023-04-29T07:17:50;100845.50;;;11.46;37.04
71857;BME280;63344;46.980;28.882;2023-04-29T07:20:17;100846.00;;;11.55;36.09
71857;BME280;63344;46.980;28.882;2023-04-29T07:22:48;100838.91;;;11.78;34.83
71857;BME280;63344;46.980;28.882;2023-04-29T07:25:15;100850.84;;;11.68;34.78
71857;BME280;63344;46.980;28.882;2023-04-29T07:27:43;100843.91;;;11.64;35.19
71857;BME280;63344;46.980;28.882;2023-04-29T07:30:10;100855.06;;;11.73;34.22
71857;BME280;63344;46.980;28.882;2023-04-29T07:32:38;100848.69;;;11.77;33.79
71857;BME280;63344;46.980;28.882;2023-04-29T07:35:06;100848.97;;;11.93;32.63
71857;BME280;63344;46.980;28.882;2023-04-29T07:37:40;100858.03;;;11.88;33.16
71857;BME280;63344;46.980;28.882;2023-04-29T07:40:10;100853.44;;;11.93;32.93
71857;BME280;63344;46.980;28.882;2023-04-29T07:42:38;100865.66;;;12.19;32.46
71857;BME280;63344;46.980;28.882;2023-04-29T07:45:06;100855.06;;;12.18;32.36
71857;BME280;63344;46.980;28.882;2023-04-29T07:47:33;100853.03;;;12.24;32.08
71857;BME280;63344;46.980;28.882;2023-04-29T07:50:01;100861.75;;;12.28;32.66
71857;BME280;63344;46.980;28.882;2023-04-29T07:52:29;100861.03;;;12.45;31.59
71857;BME280;63344;46.980;28.882;2023-04-29T07:54:56;100866.16;;;12.29;32.21
71857;BME280;63344;46.980;28.882;2023-04-29T07:57:24;100852.56;;;12.35;32.34
71857;BME280;63344;46.980;28.882;2023-04-29T07:59:54;100846.13;;;12.41;32.85
71857;BME280;63344;46.980;28.882;2023-04-29T08:02:22;100857.59;;;12.43;32.41
71857;BME280;63344;46.980;28.882;2023-04-29T08:04:50;100854.75;;;12.46;32.02
71857;BME280;63344;46.980;28.882;2023-04-29T08:07:18;100844.09;;;12.46;32.17
71857;BME280;63344;46.980;28.882;2023-04-29T08:09:45;100856.63;;;12.44;32.55
71857;BME280;63344;46.980;28.882;2023-04-29T08:12:12;100853.00;;;12.46;33.08
71857;BME280;63344;46.980;28.882;2023-04-29T08:14:40;100830.28;;;12.58;32.90
71857;BME280;63344;46.980;28.882;2023-04-29T08:17:11;100847.88;;;12.62;33.08
71857;BME280;63344;46.980;28.882;2023-04-29T08:19:39;100843.75;;;12.74;32.96
71857;BME280;63344;46.980;28.882;2023-04-29T08:22:17;100845.53;;;13.14;32.72
71857;BME280;63344;46.980;28.882;2023-04-29T08:24:45;100827.72;;;14.08;31.90
71857;BME280;63344;46.980;28.882;2023-04-29T08:27:12;100826.03;;;14.93;30.37
71857;BME280;63344;46.980;28.882;2023-04-29T08:29:42;100813.34;;;15.30;29.38
71857;BME280;63344;46.980;28.882;2023-04-29T08:32:09;100813.84;;;15.37;28.72
71857;BME280;63344;46.980;28.882;2023-04-29T08:34:37;100805.63;;;15.56;28.70
71857;BME280;63344;46.980;28.882;2023-04-29T08:37:05;100797.88;;;15.83;28.44
71857;BME280;63344;46.980;28.882;2023-04-29T08:39:33;100799.56;;;16.30;27.85
71857;BME280;63344;46.980;28.882;2023-04-29T08:42:08;100812.47;;;16.68;27.20
71857;BME280;63344;46.980;28.882;2023-04-29T08:44:36;100805.63;;;16.92;26.61
71857;BME280;63344;46.980;28.882;2023-04-29T08:47:05;100808.22;;;16.94;26.76
71857;BME280;63344;46.980;28.882;2023-04-29T08:49:33;100814.16;;;17.14;26.66
71857;BME280;63344;46.980;28.882;2023-04-29T08:52:03;100790.50;;;17.47;25.34
71857;BME280;63344;46.980;28.882;2023-04-29T08:54:31;100808.41;;;17.20;26.10
71857;BME280;63344;46.980;28.882;2023-04-29T08:56:59;100795.88;;;17.75;26.15
71857;BME280;63344;46.980;28.882;2023-04-29T08:59:29;100785.97;;;18.55;24.98
71857;BME280;63344;46.980;28.882;2023-04-29T09:01:57;100781.41;;;18.17;24.39
71857;BME280;63344;46.980;28.882;2023-04-29T09:04:45;100769.22;;;17.99;24.02
71857;BME280;63344;46.980;28.882;2023-04-29T09:07:17;100767.53;;;17.98;24.41
71857;BME280;63344;46.980;28.882;2023-04-29T09:09:45;100781.50;;;18.03;24.29
71857;BME280;63344;46.980;28.882;2023-04-29T09:12:13;100770.88;;;18.14;23.70
71857;BME280;63344;46.980;28.882;2023-04-29T09:14:43;100760.66;;;18.19;24.06
71857;BME280;63344;46.980;28.882;2023-04-29T09:17:11;100755.84;;;18.24;23.95
71857;BME280;63344;46.980;28.882;2023-04-29T09:19:38;100763.91;;;18.24;24.02
71857;BME280;63344;46.980;28.882;2023-04-29T09:25:16;100751.13;;;18.92;23.07
71857;BME280;63344;46.980;28.882;2023-04-29T09:27:54;100755.06;;;19.12;22.95
71857;BME280;63344;46.980;28.882;2023-04-29T09:30:23;100742.25;;;19.16;23.40
71857;BME280;63344;46.980;28.882;2023-04-29T09:33:08;100746.53;;;19.18;23.59
71857;BME280;63344;46.980;28.882;2023-04-29T09:35:36;100740.69;;;19.37;23.40
71857;BME280;63344;46.980;28.882;2023-04-29T09:38:14;100736.22;;;19.12;23.02
71857;BME280;63344;46.980;28.882;2023-04-29T09:40:42;100736.56;;;19.07;23.48
71857;BME280;63344;46.980;28.882;2023-04-29T09:43:25;100742.03;;;19.43;22.90
71857;BME280;63344;46.980;28.882;2023-04-29T09:45:58;100722.88;;;19.72;22.52
71857;BME280;63344;46.980;28.882;2023-04-29T09:48:30;100714.03;;;19.45;22.76
71857;BME280;63344;46.980;28.882;2023-04-29T09:51:00;100734.63;;;19.09;23.40
71857;BME280;63344;46.980;28.882;2023-04-29T09:53:30;100728.66;;;19.78;22.82
71857;BME280;63344;46.980;28.882;2023-04-29T09:56:00;100722.78;;;20.20;21.91
71857;BME280;63344;46.980;28.882;2023-04-29T09:58:30;100714.16;;;20.03;21.83
71857;BME280;63344;46.980;28.882;2023-04-29T10:01:01;100712.13;;;19.83;22.38
71857;BME280;63344;46.980;28.882;2023-04-29T10:03:32;100717.72;;;20.04;22.29
71857;BME280;63344;46.980;28.882;2023-04-29T10:06:05;100711.44;;;20.73;21.86
71857;BME280;63344;46.980;28.882;2023-04-29T10:08:34;100707.69;;;21.41;21.01
71857;BME280;63344;46.980;28.882;2023-04-29T10:11:03;100710.47;;;20.74;21.67
71857;BME280;63344;46.980;28.882;2023-04-29T10:13:50;100707.97;;;20.37;21.99
71857;BME280;63344;46.980;28.882;2023-04-29T10:16:27;100712.28;;;20.50;21.44
71857;BME280;63344;46.980;28.882;2023-04-29T10:18:59;100708.97;;;20.47;21.51
71857;BME280;63344;46.980;28.882;2023-04-29T10:21:38;100711.06;;;20.43;21.83
71857;BME280;63344;46.980;28.882;2023-04-29T10:24:06;100698.47;;;19.97;22.30
71857;BME280;63344;46.980;28.882;2023-04-29T10:26:37;100711.09;;;20.66;22.12
71857;BME280;63344;46.980;28.882;2023-04-29T10:29:08;100699.94;;;20.93;21.68
71857;BME280;63344;46.980;28.882;2023-04-29T10:31:42;100702.84;;;20.79;22.30
71857;BME280;63344;46.980;28.882;2023-04-29T10:34:11;100701.09;;;21.66;21.64
71857;BME280;63344;46.980;28.882;2023-04-29T10:36:41;100696.25;;;22.02;20.99
71857;BME280;63344;46.980;28.882;2023-04-29T10:39:18;100702.97;;;21.11;20.95
71857;BME280;63344;46.980;28.882;2023-04-29T10:41:49;100705.81;;;20.87;21.83
71857;BME280;63344;46.980;28.882;2023-04-29T10:44:17;100702.47;;;20.49;22.10
71857;BME280;63344;46.980;28.882;2023-04-29T10:46:45;100690.84;;;20.83;22.08
71857;BME280;63344;46.980;28.882;2023-04-29T10:49:17;100670.09;;;20.61;22.50
71857;BME280;63344;46.980;28.882;2023-04-29T10:51:46;100675.09;;;20.43;22.96
71857;BME280;63344;46.980;28.882;2023-04-29T10:54:17;100686.47;;;20.01;23.39
71857;BME280;63344;46.980;28.882;2023-04-29T10:56:52;100676.34;;;19.33;23.49
71857;BME280;63344;46.980;28.882;2023-04-29T11:02:11;100686.75;;;18.89;23.82
71857;BME280;63344;46.980;28.882;2023-04-29T11:05:05;100685.06;;;19.36;23.48
71857;BME280;63344;46.980;28.882;2023-04-29T11:07:34;100677.91;;;19.24;23.29
71857;BME280;63344;46.980;28.882;2023-04-29T11:10:01;100669.94;;;18.98;23.96
71857;BME280;63344;46.980;28.882;2023-04-29T11:12:29;100658.00;;;18.89;24.85
71857;BME280;63344;46.980;28.882;2023-04-29T11:14:57;100665.34;;;18.87;24.17
71857;BME280;63344;46.980;28.882;2023-04-29T11:17:35;100656.94;;;18.66;24.18
71857;BME280;63344;46.980;28.882;2023-04-29T11:20:13;100651.72;;;19.74;23.56
71857;BME280;63344;46.980;28.882;2023-04-29T11:22:41;100635.84;;;20.05;22.54
71857;BME280;63344;46.980;28.882;2023-04-29T11:25:16;100638.94;;;19.17;23.45
71857;BME280;63344;46.980;28.882;2023-04-29T11:27:46;100651.06;;;19.35;23.42
71857;BME280;63344;46.980;28.882;2023-04-29T11:30:17;100645.72;;;19.82;23.07
71857;BME280;63344;46.980;28.882;2023-04-29T11:32:45;100647.78;;;19.78;23.15
71857;BME280;63344;46.980;28.882;2023-04-29T11:35:16;100648.47;;;19.69;23.28
71857;BME280;63344;46.980;28.882;2023-04-29T11:37:45;100642.25;;;20.38;22.84
71857;BME280;63344;46.980;28.882;2023-04-29T11:40:14;100645.13;;;20.01;22.13
71857;BME280;63344;46.980;28.882;2023-04-29T11:42:44;100647.59;;;19.68;22.44
71857;BME280;63344;46.980;28.882;2023-04-29T11:45:12;100651.94;;;19.23;23.15
71857;BME280;63344;46.980;28.882;2023-04-29T11:47:43;100648.44;;;18.73;24.22
71857;BME280;63344;46.980;28.882;2023-04-29T11:50:13;100653.56;;;18.26;23.94
71857;BME280;63344;46.980;28.882;2023-04-29T11:52:42;100649.47;;;17.95;24.50
71857;BME280;63344;46.980;28.882;2023-04-29T11:55:12;100645.28;;;18.16;25.12
71857;BME280;63344;46.980;28.882;2023-04-29T11:57:40;100649.69;;;18.30;24.25
71857;BME280;63344;46.980;28.882;2023-04-29T12:00:09;100645.81;;;18.08;24.14
71857;BME280;63344;46.980;28.882;2023-04-29T12:02:44;100637.84;;;18.07;24.82
71857;BME280;63344;46.980;28.882;2023-04-29T12:05:13;100644.41;;;18.28;25.01
71857;BME280;63344;46.980;28.882;2023-04-29T12:07:43;100630.78;;;18.06;25.16
71857;BME280;63344;46.980;28.882;2023-04-29T12:10:16;100636.34;;;17.90;24.94
71857;BME280;63344;46.980;28.882;2023-04-29T12:12:44;100635.63;;;17.61;25.73
71857;BME280;63344;46.980;28.882;2023-04-29T12:15:12;100629.59;;;17.44;26.09
71857;BME280;63344;46.980;28.882;2023-04-29T12:17:41;100634.09;;;17.84;25.83
71857;BME280;63344;46.980;28.882;2023-04-29T12:20:10;100627.75;;;18.10;25.19
71857;BME280;63344;46.980;28.882;2023-04-29T12:22:38;100619.81;;;17.96;24.78
71857;BME280;63344;46.980;28.882;2023-04-29T12:25:06;100621.31;;;18.00;25.42
71857;BME280;63344;46.980;28.882;2023-04-29T12:27:34;100617.47;;;18.80;24.23
71857;BME280;63344;46.980;28.882;2023-04-29T12:30:06;100604.00;;;19.28;23.57
71857;BME280;63344;46.980;28.882;2023-04-29T12:32:36;100611.19;;;19.52;22.88
71857;BME280;63344;46.980;28.882;2023-04-29T12:35:05;100620.38;;;19.25;22.92
71857;BME280;63344;46.980;28.882;2023-04-29T12:37:33;100601.59;;;19.36;22.78
71857;BME280;63344;46.980;28.882;2023-04-29T12:40:01;100609.00;;;18.97;23.66
71857;BME280;63344;46.980;28.882;2023-04-29T12:42:32;100603.50;;;18.62;23.71
71857;BME280;63344;46.980;28.882;2023-04-29T12:45:00;100601.03;;;19.20;23.62
71857;BME280;63344;46.980;28.882;2023-04-29T12:47:32;100597.59;;;19.18;23.68
71857;BME280;63344;46.980;28.882;2023-04-29T12:50:06;100599.38;;;19.06;23.28
71857;BME280;63344;46.980;28.882;2023-04-29T12:53:04;100590.22;;;18.71;24.06
71857;BME280;63344;46.980;28.882;2023-04-29T12:55:33;100581.50;;;18.68;24.64
71857;BME280;63344;46.980;28.882;2023-04-29T12:58:18;100576.53;;;18.75;24.59
71857;BME280;63344;46.980;28.882;2023-04-29T13:00:45;100571.38;;;18.47;24.17
71857;BME280;63344;46.980;28.882;2023-04-29T13:03:13;100572.16;;;18.24;24.19
71857;BME280;63344;46.980;28.882;2023-04-29T13:05:41;100575.97;;;17.96;24.54
71857;BME280;63344;46.980;28.882;2023-04-29T13:08:08;100559.63;;;17.86;24.67
71857;BME280;63344;46.980;28.882;2023-04-29T13:10:36;100567.63;;;17.73;24.82